Time;durP1;ratioP1;P1;durP2;ratioP2;P2;SDS_P1;SDS_P2;PMS_P1;PMS_P2;Temp;Humidity;BMP_temperature;BMP_pressure;BME280_temperature;BME280_humidity;BME280_pressure;Samples;Min_cycle;Max_cycle;Signal;HPM_P1;HPM_P2
2022/09/23 00:00:41;;;;;;;29.00;14.63;;;;;;;9.49;90.87;99329.66;2191662;81;20972;-80
2022/09/23 00:03:41;;;;;;;25.53;13.50;;;;;;;9.49;91.06;99327.05;2192049;81;21069;-80
2022/09/23 00:06:42;;;;;;;52.33;15.60;;;;;;;9.48;90.87;99327.02;2190218;81;21313;-79
2022/09/23 00:09:42;;;;;;;18.60;13.37;;;;;;;9.44;90.96;99322.15;2189937;81;20972;-79
2022/09/23 00:12:42;;;;;;;23.57;13.57;;;;;;;9.44;91.06;99326.06;2190501;81;20972;-79
2022/09/23 00:15:43;;;;;;;21.23;13.20;;;;;;;9.41;90.92;99323.80;2190069;81;21000;-78
2022/09/23 00:18:43;;;;;;;20.07;12.47;;;;;;;9.35;90.89;99327.14;2190257;81;21011;-78
2022/09/23 00:21:44;;;;;;;21.03;14.17;;;;;;;9.34;91.38;99320.17;2190277;81;20956;-78
2022/09/23 00:24:44;;;;;;;20.43;12.83;;;;;;;9.37;91.68;99322.84;2190494;81;21000;-80
2022/09/23 00:27:44;;;;;;;17.47;12.33;;;;;;;9.38;91.56;99319.40;2191548;81;20986;-80
2022/09/23 00:30:45;;;;;;;17.30;12.57;;;;;;;9.37;91.57;99315.03;2191449;81;21007;-80
2022/09/23 00:33:45;;;;;;;21.73;13.47;;;;;;;9.36;91.38;99317.60;2191251;81;21372;-80
2022/09/23 00:36:46;;;;;;;20.43;13.90;;;;;;;9.33;91.60;99314.50;2191888;81;20948;-80
2022/09/23 00:39:46;;;;;;;19.17;14.17;;;;;;;9.34;91.78;99315.37;2192238;81;20936;-80
2022/09/23 00:42:47;;;;;;;20.27;14.40;;;;;;;9.34;91.77;99320.17;2192736;81;20924;-80
2022/09/23 00:45:47;;;;;;;25.13;14.77;;;;;;;9.34;91.99;99319.28;2193018;80;21062;-81
2022/09/23 00:48:47;;;;;;;18.87;14.60;;;;;;;9.32;92.12;99317.95;2192888;81;20979;-84
2022/09/23 00:51:48;;;;;;;21.17;14.30;;;;;;;9.30;92.26;99311.82;2192456;81;20979;-81
2022/09/23 00:54:48;;;;;;;22.50;14.87;;;;;;;9.32;92.47;99314.04;2191383;81;20972;-81
2022/09/23 00:57:49;;;;;;;22.03;14.73;;;;;;;9.34;92.51;99308.45;2191292;81;22159;-81
2022/09/23 01:00:49;;;;;;;24.30;16.53;;;;;;;9.34;92.44;99312.77;2191521;81;20988;-80
2022/09/23 01:03:49;;;;;;;24.57;15.63;;;;;;;9.31;92.47;99313.58;2191476;81;20959;-80
2022/09/23 01:07:08;;;;;;;25.93;15.30;;;;;;;9.27;92.36;99314.35;2191446;81;20920;-81
2022/09/23 01:10:09;;;;;;;27.37;14.87;;;;;;;9.28;93.18;99308.30;2175676;81;20988;-80
2022/09/23 01:13:09;;;;;;;19.17;14.63;;;;;;;9.22;92.56;99309.45;2175580;81;20898;-80
2022/09/23 01:16:09;;;;;;;21.47;14.73;;;;;;;9.16;92.57;99314.09;2175323;81;21012;-80
2022/09/23 01:19:10;;;;;;;19.93;14.33;;;;;;;9.09;92.59;99306.97;2175784;81;20941;-80
2022/09/23 01:22:10;;;;;;;20.97;13.63;;;;;;;9.04;92.88;99299.45;2175092;81;20933;-79
2022/09/23 01:25:12;;;;;;;19.57;13.70;;;;;;;9.03;92.93;99300.72;2174856;81;20926;-79
2022/09/23 01:28:11;;;;;;;17.80;13.33;;;;;;;9.01;93.05;99295.90;2175096;81;20890;-79
2022/09/23 01:31:12;;;;;;;19.37;12.27;;;;;;;8.96;92.98;99306.62;2175574;81;21005;-80
2022/09/23 01:34:12;;;;;;;21.77;13.73;;;;;;;8.90;93.10;99300.41;2175411;81;20922;-80
2022/09/23 01:37:12;;;;;;;20.43;14.20;;;;;;;8.86;93.17;99298.57;2175732;81;20964;-80
2022/09/23 01:40:13;;;;;;;25.57;12.83;;;;;;;8.86;93.34;99302.90;2174850;81;20985;-79
2022/09/23 01:43:14;;;;;;;21.93;14.67;;;;;;;8.85;93.28;99302.44;2175777;81;20925;-81
2022/09/23 01:46:14;;;;;;;17.80;13.07;;;;;;;8.80;93.37;99305.34;2175444;81;20985;-80
2022/09/23 01:49:14;;;;;;;17.43;13.30;;;;;;;8.75;93.51;99302.63;2175877;81;20929;-81
2022/09/23 01:52:15;;;;;;;22.33;13.33;;;;;;;8.73;93.30;99312.11;2175943;81;21004;-80
2022/09/23 01:55:15;;;;;;;19.73;12.90;;;;;;;8.69;92.80;99304.18;2175073;81;20941;-80
2022/09/23 01:58:15;;;;;;;17.33;13.23;;;;;;;8.64;92.70;99301.42;2174313;81;21056;-81
2022/09/23 02:01:16;;;;;;;19.97;12.83;;;;;;;8.59;93.25;99300.00;2174360;81;20929;-81
2022/09/23 02:04:16;;;;;;;21.43;13.13;;;;;;;8.57;93.37;99299.08;2175631;81;20925;-80
2022/09/23 02:07:17;;;;;;;19.43;12.33;;;;;;;8.54;93.36;99299.41;2174768;81;20905;-82
2022/09/23 02:10:17;;;;;;;19.20;12.63;;;;;;;8.47;93.35;99297.48;2189875;81;21000;-80
2022/09/23 02:13:18;;;;;;;25.67;13.33;;;;;;;8.40;93.02;99295.55;2191819;81;20967;-79
2022/09/23 02:16:18;;;;;;;21.87;11.67;;;;;;;8.39;92.77;99301.17;2191729;81;20992;-80
2022/09/23 02:19:18;;;;;;;19.13;12.00;;;;;;;8.34;92.48;99308.39;2191465;81;20952;-80
2022/09/23 02:22:19;;;;;;;17.60;11.60;;;;;;;8.30;92.44;99299.17;2190090;81;21309;-78
2022/09/23 02:25:19;;;;;;;25.47;11.77;;;;;;;8.28;92.32;99307.34;2190967;81;20919;-80
2022/09/23 02:28:19;;;;;;;17.77;11.57;;;;;;;8.24;92.50;99296.39;2190863;81;20984;-80
2022/09/23 02:31:20;;;;;;;115.10;74.37;;;;;;;8.15;91.62;99297.44;2190526;81;20925;-80
2022/09/23 02:34:20;;;;;;;44.03;31.77;;;;;;;8.04;91.53;99292.77;2190489;81;20929;-80
2022/09/23 02:37:21;;;;;;;21.07;16.73;;;;;;;7.98;91.62;99289.58;2190461;81;20929;-79
2022/09/23 02:40:26;;;;;;;22.00;12.70;;;;;;;7.95;91.58;99290.78;2190648;81;20952;-80
2022/09/23 02:43:26;;;;;;;33.67;13.10;;;;;;;7.88;91.31;99293.63;2190477;81;20979;-80
2022/09/23 02:46:25;;;;;;;42.40;12.30;;;;;;;7.82;91.73;99298.64;2190286;81;21398;-80
2022/09/23 02:49:25;;;;;;;44.43;13.40;;;;;;;7.81;91.94;99297.30;2190569;81;20944;-80
2022/09/23 02:52:25;;;;;;;78.60;15.67;;;;;;;7.88;93.58;99296.22;2189771;81;20932;-77
2022/09/23 02:55:26;;;;;;;14.37;11.40;;;;;;;7.92;95.00;99295.89;2189606;81;20948;-79
2022/09/23 02:58:26;;;;;;;15.40;10.23;;;;;;;7.98;92.07;99299.97;2189730;81;20996;-81
2022/09/23 03:01:30;;;;;;;23.03;11.43;;;;;;;7.88;91.09;99293.63;2189744;81;20952;-80
2022/09/23 03:04:28;;;;;;;112.70;18.87;;;;;;;7.76;91.01;99298.84;2190569;81;20956;-79
2022/09/23 03:07:31;;;;;;;41.93;13.40;;;;;;;7.66;91.05;99293.78;2190729;81;20929;-80
2022/09/23 03:10:28;;;;;;;16.97;11.73;;;;;;;7.58;91.10;99294.84;2190619;81;20932;-80
2022/09/23 03:13:29;;;;;;;17.73;11.30;;;;;;;7.46;90.51;99299.66;2190205;81;20889;-80
2022/09/23 03:16:29;;;;;;;21.33;14.67;;;;;;;7.32;90.55;99294.03;2189978;81;21396;-79
2022/09/23 03:19:31;;;;;;;35.03;17.27;;;;;;;7.22;90.45;99292.39;2190486;81;20972;-80
2022/09/23 03:22:30;;;;;;;50.33;13.57;;;;;;;7.13;90.75;99292.10;2190631;81;20913;-80
2022/09/23 03:25:30;;;;;;;21.97;11.07;;;;;;;7.03;90.60;99294.39;2190440;81;20929;-80
2022/09/23 03:28:30;;;;;;;21.13;11.93;;;;;;;6.94;90.35;99289.32;2189283;81;21610;-79
2022/09/23 03:31:31;;;;;;;18.27;9.97;;;;;;;6.84;90.40;99293.70;2190305;81;20901;-79
2022/09/23 03:34:31;;;;;;;20.03;11.13;;;;;;;6.77;90.37;99295.62;2189692;81;20956;-81
2022/09/23 03:37:32;;;;;;;18.77;10.77;;;;;;;6.65;90.33;99296.09;2189975;81;20928;-80
2022/09/23 03:40:32;;;;;;;49.60;11.73;;;;;;;6.57;90.24;99297.13;2189501;81;21560;-80
2022/09/23 03:43:32;;;;;;;18.70;10.17;;;;;;;6.49;90.46;99295.09;2190085;81;20998;-81
2022/09/23 03:46:34;;;;;;;19.50;10.80;;;;;;;6.44;90.53;99294.05;2189350;81;20972;-80
2022/09/23 03:49:33;;;;;;;19.67;10.90;;;;;;;6.38;90.29;99290.41;2189257;81;20965;-80
2022/09/23 03:52:34;;;;;;;18.27;10.80;;;;;;;6.28;90.08;99296.09;2189270;81;20929;-80
2022/09/23 03:55:34;;;;;;;16.57;11.57;;;;;;;6.18;89.92;99296.59;2188454;81;20983;-80
2022/09/23 03:58:34;;;;;;;16.00;12.00;;;;;;;6.12;90.16;99296.78;2188646;81;20940;-80
2022/09/23 04:01:35;;;;;;;16.63;11.00;;;;;;;6.06;90.50;99299.59;2188782;81;21523;-80
2022/09/23 04:04:35;;;;;;;13.23;10.03;;;;;;;6.02;90.31;99300.30;2187357;81;21079;-80
2022/09/23 04:07:36;;;;;;;18.30;12.17;;;;;;;5.85;90.43;99299.17;2187381;81;20988;-79
2022/09/23 04:10:36;;;;;;;23.23;10.73;;;;;;;5.85;90.43;99299.17;2187664;81;21012;-79
2022/09/23 04:13:36;;;;;;;33.77;11.83;;;;;;;5.82;90.61;99293.88;2188018;81;20916;-79
2022/09/23 04:16:37;;;;;;;19.27;11.00;;;;;;;5.81;90.45;99293.41;2186885;81;21375;-79
2022/09/23 04:19:37;;;;;;;17.27;11.43;;;;;;;5.73;90.32;99290.11;2187042;81;21399;-79
2022/09/23 04:22:38;;;;;;;33.70;12.50;;;;;;;5.69;90.50;99288.23;2186397;81;20940;-80
2022/09/23 04:25:38;;;;;;;20.77;11.37;;;;;;;5.66;90.69;99290.70;2186945;81;21288;-79
2022/09/23 04:28:39;;;;;;;19.50;11.37;;;;;;;5.65;90.66;99294.12;2187548;81;20921;-80
2022/09/23 04:31:39;;;;;;;17.47;11.13;;;;;;;5.63;90.44;99292.30;2187221;81;20960;-81
2022/09/23 04:34:39;;;;;;;52.30;27.37;;;;;;;5.60;90.77;99292.17;2187424;81;20956;-77
2022/09/23 04:37:40;;;;;;;27.07;14.03;;;;;;;5.60;91.04;99295.65;2186281;81;20988;-79
2022/09/23 04:40:40;;;;;;;30.97;13.40;;;;;;;5.63;90.91;99294.88;2186668;81;20952;-80
2022/09/23 04:43:41;;;;;;;35.10;14.57;;;;;;;5.65;91.21;99298.41;2186264;81;21095;-82
2022/09/23 04:46:42;;;;;;;35.17;14.10;;;;;;;5.69;91.07;99299.00;2186195;81;21043;-84
2022/09/23 04:49:42;;;;;;;29.87;13.60;;;;;;;5.75;91.21;99306.59;2186724;81;20920;-82
2022/09/23 04:52:42;;;;;;;43.13;14.63;;;;;;;5.83;91.25;99301.70;2186949;81;20956;-81
2022/09/23 04:55:42;;;;;;;40.60;23.70;;;;;;;5.90;90.84;99297.25;2187112;81;20976;-83
2022/09/23 04:58:44;;;;;;;44.70;23.73;;;;;;;5.95;90.42;99297.42;2187533;81;21418;-81
2022/09/23 05:01:43;;;;;;;35.60;17.20;;;;;;;6.08;90.98;99295.79;2188861;81;20991;-81
2022/09/23 05:04:44;;;;;;;97.77;47.77;;;;;;;6.26;91.17;99295.16;2188233;81;21055;-81
2022/09/23 05:07:44;;;;;;;30.70;17.30;;;;;;;6.52;91.69;99295.20;2187528;81;20980;-80
2022/09/23 05:10:45;;;;;;;37.37;15.23;;;;;;;6.74;92.13;99300.70;2186782;81;21016;-79
2022/09/23 05:13:45;;;;;;;29.23;15.73;;;;;;;6.92;92.48;99302.20;2187327;81;20979;-78
2022/09/23 05:16:45;;;;;;;26.83;15.93;;;;;;;7.08;92.24;99304.05;2186119;81;21055;-80
2022/09/23 05:19:46;;;;;;;27.87;13.87;;;;;;;7.24;92.31;99303.30;2186424;81;20984;-81
2022/09/23 05:22:46;;;;;;;115.70;65.20;;;;;;;7.40;92.20;99304.66;2186438;81;20972;-78
2022/09/23 05:25:47;;;;;;;29.03;16.70;;;;;;;7.55;92.07;99301.66;2185867;81;21418;-82
2022/09/23 05:28:47;;;;;;;30.87;15.87;;;;;;;7.60;91.73;99302.27;2186320;81;20983;-83
2022/09/23 05:31:47;;;;;;;43.83;15.23;;;;;;;7.58;91.91;99300.05;2186362;81;20983;-82
2022/09/23 05:34:48;;;;;;;39.57;15.90;;;;;;;7.57;92.01;99303.47;2185686;81;20928;-81
2022/09/23 05:37:48;;;;;;;31.13;16.00;;;;;;;7.62;92.26;99306.22;2186218;81;21410;-78
2022/09/23 05:40:49;;;;;;;40.50;18.90;;;;;;;7.71;92.35;99306.49;2186664;81;20987;-85
2022/09/23 05:43:50;;;;;;;38.20;18.30;;;;;;;7.77;92.19;99307.09;2186722;81;21003;-82
2022/09/23 05:46:49;;;;;;;95.77;19.97;;;;;;;7.86;92.35;99312.61;2187188;81;21027;-82
2022/09/23 05:49:50;;;;;;;119.63;20.43;;;;;;;7.94;92.10;99309.39;2186292;81;20994;-81
2022/09/23 05:52:51;;;;;;;94.17;21.70;;;;;;;8.00;91.77;99307.40;2185691;81;21491;-84
2022/09/23 05:55:53;;;;;;;114.00;23.87;;;;;;;8.09;91.94;99310.69;2186765;81;21043;-83
2022/09/23 05:58:51;;;;;;;67.83;23.50;;;;;;;8.15;91.75;99316.94;2186310;81;21043;-82
2022/09/23 06:01:51;;;;;;;68.37;22.73;;;;;;;8.23;91.48;99311.95;2186265;81;21015;-83
2022/09/23 06:04:52;;;;;;;62.73;23.60;;;;;;;8.22;91.30;99320.59;2186787;81;20983;-81
2022/09/23 06:07:52;;;;;;;73.53;25.37;;;;;;;8.29;91.45;99317.33;2187186;81;21059;-80
2022/09/23 06:10:53;;;;;;;83.40;27.50;;;;;;;8.34;91.52;99316.20;2173232;81;21060;-81
2022/09/23 06:13:53;;;;;;;164.03;26.23;;;;;;;8.34;91.48;99316.20;2170523;81;21448;-83
2022/09/23 06:16:53;;;;;;;73.67;23.17;;;;;;;8.40;91.47;99312.47;2170226;81;20976;-83
2022/09/23 06:19:54;;;;;;;104.73;22.87;;;;;;;8.45;91.41;99313.47;2170002;81;21028;-81
2022/09/23 06:22:55;;;;;;;64.57;27.70;;;;;;;8.59;91.36;99313.43;2169873;81;21419;-79
2022/09/23 06:25:55;;;;;;;66.83;29.43;;;;;;;8.65;91.29;99322.70;2169963;82;21051;-81
2022/09/23 06:28:56;;;;;;;63.63;28.73;;;;;;;8.78;91.73;99322.64;2171414;81;21003;-82
2022/09/23 06:31:58;;;;;;;121.90;29.23;;;;;;;8.92;91.31;99324.77;2171451;81;20988;-83
2022/09/23 06:34:57;;;;;;;63.50;31.30;;;;;;;9.09;90.95;99312.59;2171752;81;20988;-81
2022/09/23 06:37:57;;;;;;;70.50;28.47;;;;;;;9.30;91.05;99314.84;2170822;81;21011;-82
2022/09/23 06:40:57;;;;;;;53.87;24.53;;;;;;;9.45;90.26;99313.91;2170826;81;20980;-82
2022/09/23 06:43:58;;;;;;;34.43;22.87;;;;;;;9.42;89.96;99310.81;2170833;81;21075;-81
2022/09/23 06:46:58;;;;;;;35.67;23.90;;;;;;;9.43;90.04;99312.57;2170153;81;21012;-81
2022/09/23 06:49:59;;;;;;;43.57;22.93;;;;;;;9.63;90.39;99314.80;2169962;81;20961;-81
2022/09/23 06:52:59;;;;;;;40.43;22.80;;;;;;;9.86;90.05;99313.58;2171296;81;21016;-81
2022/09/23 06:56:00;;;;;;;37.90;25.17;;;;;;;9.86;89.28;99322.28;2170941;81;21013;-80
2022/09/23 06:59:00;;;;;;;38.37;25.87;;;;;;;9.93;88.80;99318.51;2169741;81;21403;-82
2022/09/23 07:02:00;;;;;;;42.70;22.80;;;;;;;10.01;88.86;99320.44;2169335;81;20965;-81
2022/09/23 07:05:01;;;;;;;45.77;23.57;;;;;;;9.97;88.25;99325.55;2170665;81;20996;-82
2022/09/23 07:08:02;;;;;;;37.70;24.80;;;;;;;9.89;87.98;99329.30;2170521;81;21013;-81
2022/09/23 07:11:01;;;;;;;41.60;24.20;;;;;;;9.85;88.55;99331.37;2169575;81;21008;-81
2022/09/23 07:14:02;;;;;;;39.07;23.80;;;;;;;9.96;88.34;99335.52;2169990;81;21368;-81
2022/09/23 07:17:02;;;;;;;35.47;22.37;;;;;;;9.96;88.55;99335.10;2170425;81;21440;-80
2022/09/23 07:20:03;;;;;;;55.87;23.27;;;;;;;10.20;88.69;99326.95;2170810;81;21068;-82
2022/09/23 07:23:05;;;;;;;36.37;20.00;;;;;;;10.30;87.68;99330.63;2158547;82;20988;-82
2022/09/23 07:26:06;;;;;;;32.17;21.77;;;;;;;10.33;87.75;99336.80;2171273;81;20996;-82
2022/09/23 07:29:06;;;;;;;41.00;22.83;;;;;;;10.55;87.56;99333.34;2171952;81;20945;-83
2022/09/23 07:32:06;;;;;;;30.27;20.13;;;;;;;10.59;86.77;99335.16;2171895;81;21399;-81
2022/09/23 07:35:07;;;;;;;37.43;21.73;;;;;;;10.63;86.83;99341.78;2170355;81;21009;-77
2022/09/23 07:38:07;;;;;;;29.20;20.70;;;;;;;10.88;87.08;99337.02;2170356;81;21025;-81
2022/09/23 07:41:07;;;;;;;24.60;19.10;;;;;;;11.13;86.18;99337.48;2171297;81;20976;-81
2022/09/23 07:44:10;;;;;;;34.13;20.08;;;;;;;11.30;85.76;99337.80;2170420;81;21051;-81
2022/09/23 07:47:08;;;;;;;20.35;17.65;;;;;;;11.54;85.54;99334.70;2170109;81;21048;-80
2022/09/23 07:50:12;;;;;;;21.10;17.07;;;;;;;11.79;84.73;99336.87;2170888;81;20988;-81
2022/09/23 07:53:13;;;;;;;20.23;17.92;;;;;;;12.06;83.88;99332.45;2171827;81;20988;-81
2022/09/23 07:56:13;;;;;;;19.95;16.97;;;;;;;12.17;82.88;99335.68;2170123;81;20972;-80
2022/09/23 07:59:14;;;;;;;18.45;16.17;;;;;;;12.10;82.62;99338.61;2169427;81;21747;-81
2022/09/23 08:02:14;;;;;;;17.17;15.43;;;;;;;12.17;82.86;99336.98;2169683;81;20956;-80
2022/09/23 08:05:14;;;;;;;20.08;15.20;;;;;;;12.41;82.49;99325.52;2169740;81;21315;-81
2022/09/23 08:08:14;;;;;;;23.95;18.70;;;;;;;13.00;82.04;99326.59;2169672;81;21356;-82
2022/09/23 08:11:15;;;;;;;22.27;18.15;;;;;;;13.33;80.28;99316.48;2168707;81;21018;-79
2022/09/23 08:14:16;;;;;;;30.32;19.17;;;;;;;13.37;80.29;99315.64;2168627;81;20984;-81
2022/09/23 08:17:15;;;;;;;30.35;19.65;;;;;;;13.46;79.52;99316.14;2168511;81;21059;-80
2022/09/23 08:23:35;;;;;;;16.10;14.40;;;;;;;13.36;78.99;99320.44;2168335;82;21055;-79
2022/09/23 08:26:36;;;;;;;15.10;13.58;;;;;;;13.39;78.36;99315.65;2169418;82;20945;-80
2022/09/23 08:29:36;;;;;;;15.55;14.00;;;;;;;13.55;78.28;99320.14;2169233;81;21019;-78
2022/09/23 08:32:36;;;;;;;19.35;13.25;;;;;;;13.89;77.71;99315.16;2166687;81;20974;-78
2022/09/23 08:35:36;;;;;;;24.15;16.70;;;;;;;14.46;77.37;99308.03;2167598;82;21410;-79
2022/09/23 08:38:37;;;;;;;22.17;16.73;;;;;;;14.89;75.87;99306.86;2167329;81;20999;-78
2022/09/23 08:41:37;;;;;;;16.82;13.55;;;;;;;15.12;74.74;99306.89;2167035;81;20937;-79
2022/09/23 08:44:38;;;;;;;19.87;13.98;;;;;;;15.10;73.48;99305.58;2167610;81;20961;-80
2022/09/23 08:47:38;;;;;;;15.35;13.85;;;;;;;15.18;72.70;99307.77;2167603;81;22062;-79
2022/09/23 08:50:41;;;;;;;15.68;12.05;;;;;;;14.98;72.63;99309.50;2168177;81;20942;-79
2022/09/23 08:53:41;;;;;;;9.73;8.78;;;;;;;14.96;72.65;99304.69;2168293;81;21020;-80
2022/09/23 08:56:41;;;;;;;8.40;7.42;;;;;;;15.09;72.63;99304.27;2167941;81;20964;-79
2022/09/23 08:59:40;;;;;;;7.92;7.00;;;;;;;15.42;71.28;99304.70;2168088;81;20952;-78
2022/09/23 09:02:43;;;;;;;8.18;7.25;;;;;;;15.75;70.53;99303.86;2155919;82;21070;-78
2022/09/23 09:05:43;;;;;;;5.40;4.90;;;;;;;15.74;69.80;99309.56;2167528;81;21004;-79
2022/09/23 09:08:43;;;;;;;6.22;4.67;;;;;;;15.51;66.96;99310.84;2167710;81;21471;-80
2022/09/23 09:11:44;;;;;;;7.37;6.12;;;;;;;15.34;67.67;99306.46;2167111;81;21028;-78
2022/09/23 09:14:44;;;;;;;9.28;6.87;;;;;;;15.26;68.82;99303.83;2168862;81;21015;-79
2022/09/23 09:17:47;;;;;;;6.17;5.22;;;;;;;15.59;68.50;99302.97;2167380;82;21063;-79
2022/09/23 09:20:45;;;;;;;6.95;5.45;;;;;;;15.95;67.22;99298.55;2127056;80;21815;-80
2022/09/23 09:23:46;;;;;;;10.00;5.62;;;;;;;16.03;67.25;99296.34;2111697;84;21003;-80
2022/09/23 09:26:46;;;;;;;7.28;4.12;;;;;;;16.04;65.47;99295.90;2111751;84;21028;-81
2022/09/23 09:29:46;;;;;;;4.03;3.70;;;;;;;15.53;63.61;99300.31;2111976;84;20948;-80
2022/09/23 09:32:47;;;;;;;4.40;3.80;;;;;;;14.97;63.86;99302.05;2112798;84;20940;-79
2022/09/23 09:35:49;;;;;;;4.35;3.58;;;;;;;14.54;65.72;99298.42;2112432;84;21035;-80
2022/09/23 09:38:49;;;;;;;3.35;3.05;;;;;;;14.26;66.34;99287.34;2112814;84;21003;-80
2022/09/23 09:41:48;;;;;;;3.98;3.05;;;;;;;14.11;66.39;99288.16;2112341;84;20960;-79
2022/09/23 09:44:48;;;;;;;4.78;3.50;;;;;;;14.03;66.67;99293.37;2111487;84;20947;-78
2022/09/23 09:47:50;;;;;;;7.05;2.40;;;;;;;14.30;66.22;99287.36;2112104;84;20959;-79
2022/09/23 09:50:50;;;;;;;4.60;2.37;;;;;;;14.77;64.78;99270.05;2111536;84;21007;-80
2022/09/23 09:53:54;;;;;;;3.47;2.35;;;;;;;15.28;65.08;99271.84;2111240;84;20999;-79
2022/09/23 09:56:50;;;;;;;2.42;2.22;;;;;;;15.59;61.70;99267.45;2111450;84;20995;-79
2022/09/23 09:59:50;;;;;;;3.08;2.10;;;;;;;15.61;60.24;99272.30;2112417;84;21444;-79
2022/09/23 10:02:51;;;;;;;2.90;1.87;;;;;;;15.50;61.29;99268.75;2111832;84;20944;-79
2022/09/23 10:05:53;;;;;;;2.15;1.57;;;;;;;15.39;57.59;99269.20;2111107;84;21006;-79
2022/09/23 10:08:52;;;;;;;2.83;2.30;;;;;;;15.51;59.11;99266.55;2112076;84;20958;-80
2022/09/23 10:11:53;;;;;;;2.45;2.25;;;;;;;15.73;57.25;99259.56;2111830;84;21430;-79
2022/09/23 10:14:52;;;;;;;10.63;2.20;;;;;;;15.93;58.18;99257.31;2111070;84;20920;-79
2022/09/23 10:17:55;;;;;;;2.30;1.90;;;;;;;16.28;58.49;99253.67;2080161;84;21640;-80
2022/09/23 10:20:55;;;;;;;1.77;1.65;;;;;;;16.55;55.99;99243.02;2110427;84;21018;-80
2022/09/23 10:23:56;;;;;;;3.35;1.82;;;;;;;16.50;54.54;99246.13;2111452;84;20931;-79
2022/09/23 10:26:56;;;;;;;4.85;2.25;;;;;;;16.15;53.25;99251.97;2112123;84;20963;-79
2022/09/23 10:29:57;;;;;;;3.45;1.92;;;;;;;15.86;55.74;99247.69;2112320;84;21366;-80
2022/09/23 10:32:57;;;;;;;2.37;2.02;;;;;;;16.12;55.66;99249.34;2111968;84;20952;-78
2022/09/23 10:35:57;;;;;;;6.72;2.20;;;;;;;16.16;55.59;99240.11;2111409;84;20959;-77
2022/09/23 10:46:37;;;;;;;4.42;2.42;;;;;;;16.19;56.20;99236.59;2111956;84;21015;-80
2022/09/23 10:48:36;;;;;;;6.75;2.12;;;;;;;16.24;54.68;99241.39;2111675;84;20923;-79
2022/09/23 10:51:37;;;;;;;6.00;2.20;;;;;;;16.00;55.28;99238.86;2111852;84;21019;-80
2022/09/23 10:54:37;;;;;;;2.25;1.80;;;;;;;15.91;55.58;99240.64;2111592;84;20951;-79
2022/09/23 10:57:39;;;;;;;2.90;2.30;;;;;;;15.84;55.40;99233.66;2111493;84;20955;-79
2022/09/23 11:00:39;;;;;;;2.47;2.27;;;;;;;16.17;54.69;99234.41;2111547;84;20971;-80
2022/09/23 11:03:39;;;;;;;3.15;2.35;;;;;;;16.25;54.40;99236.56;2111712;84;20975;-78
2022/09/23 11:06:38;;;;;;;4.58;1.70;;;;;;;16.06;53.24;99236.20;2111664;84;20956;-79
2022/09/23 11:09:40;;;;;;;2.20;1.60;;;;;;;15.96;52.80;99232.73;2111655;84;20947;-79
2022/09/23 11:12:40;;;;;;;2.25;1.60;;;;;;;16.00;53.57;99234.47;2111195;84;21311;-80
2022/09/23 11:15:39;;;;;;;1.75;1.65;;;;;;;15.93;51.51;99229.67;2111001;84;20956;-79
2022/09/23 11:18:40;;;;;;;1.55;1.45;;;;;;;15.79;51.79;99218.75;2111376;84;20975;-78
2022/09/23 11:21:40;;;;;;;1.45;1.20;;;;;;;15.68;51.02;99212.20;2103531;84;21043;-78
2022/09/23 11:24:42;;;;;;;1.50;1.40;;;;;;;15.62;49.41;99213.98;2102880;85;21380;-79
2022/09/23 11:27:41;;;;;;;1.50;1.35;;;;;;;15.68;47.65;99202.13;2102632;85;21002;-78
2022/09/23 11:30:41;;;;;;;1.87;1.27;;;;;;;15.82;50.86;99206.90;2103152;84;20956;-79
2022/09/23 11:33:42;;;;;;;1.10;1.10;;;;;;;15.95;46.49;99209.05;2103321;85;21003;-79
2022/09/23 11:36:42;;;;;;;1.60;1.50;;;;;;;15.96;45.21;99201.58;2103120;85;20999;-77
2022/09/23 11:39:43;;;;;;;2.15;1.67;;;;;;;16.01;45.77;99202.44;2103380;85;20960;-79
2022/09/23 11:42:44;;;;;;;2.05;1.82;;;;;;;16.04;45.29;99195.84;2103269;85;21340;-79
2022/09/23 11:45:43;;;;;;;2.40;1.75;;;;;;;16.00;46.29;99194.10;2103487;85;20959;-80
2022/09/23 11:48:44;;;;;;;1.50;1.40;;;;;;;16.09;44.69;99192.30;2103243;84;21011;-79
2022/09/23 11:51:44;;;;;;;3.72;1.75;;;;;;;16.28;45.40;99189.12;2102136;85;21700;-80
2022/09/23 11:54:45;;;;;;;2.08;1.60;;;;;;;16.37;44.98;99182.48;2102336;85;20952;-78
2022/09/23 11:57:45;;;;;;;5.92;1.62;;;;;;;16.58;47.89;99183.27;2102619;85;20992;-80
2022/09/23 12:00:46;;;;;;;1.72;1.62;;;;;;;16.80;47.19;99180.94;2103256;85;21343;-79
2022/09/23 12:03:46;;;;;;;1.60;1.50;;;;;;;16.91;47.22;99175.14;2103541;85;20976;-79
2022/09/23 12:06:46;;;;;;;1.50;1.40;;;;;;;16.92;46.99;99170.29;2103013;85;20940;-80
2022/09/23 12:09:48;;;;;;;4.25;1.62;;;;;;;16.91;46.34;99173.81;2102631;85;20981;-80
2022/09/23 12:12:47;;;;;;;1.60;1.50;;;;;;;16.83;48.68;99165.09;2102698;85;20976;-79
2022/09/23 12:15:49;;;;;;;2.20;1.52;;;;;;;16.87;48.60;99166.38;2101981;84;20963;-80
2022/09/23 12:18:49;;;;;;;2.05;1.52;;;;;;;16.89;47.64;99159.77;2102777;85;21675;-80
2022/09/23 12:21:49;;;;;;;2.02;1.55;;;;;;;16.83;47.51;99159.38;2107743;84;21031;-81
2022/09/23 12:24:50;;;;;;;1.77;1.42;;;;;;;16.81;47.84;99152.38;2109532;84;20959;-81
2022/09/23 12:27:50;;;;;;;3.37;1.70;;;;;;;16.88;47.47;99144.39;2109429;84;20979;-80
2022/09/23 12:30:50;;;;;;;1.80;1.70;;;;;;;16.80;44.98;99149.30;2109073;84;21411;-81
2022/09/23 12:33:50;;;;;;;1.70;1.60;;;;;;;16.80;44.98;99149.30;2108861;84;21104;-80
2022/09/23 12:36:51;;;;;;;3.65;1.80;;;;;;;16.36;46.05;99146.94;2109284;84;20995;-81
2022/09/23 12:39:51;;;;;;;5.20;1.70;;;;;;;16.06;46.82;99146.67;2110135;84;21466;-81
2022/09/23 12:42:51;;;;;;;1.67;1.57;;;;;;;15.90;48.31;99141.94;2110434;84;20976;-80
2022/09/23 12:45:52;;;;;;;2.02;1.72;;;;;;;15.71;49.44;99147.72;2110911;84;20988;-80
2022/09/23 12:48:55;;;;;;;3.52;1.60;;;;;;;15.56;50.18;99145.08;2111149;84;20959;-80
2022/09/23 12:51:53;;;;;;;4.55;1.75;;;;;;;15.54;52.04;99143.77;2110363;84;21838;-79
2022/09/23 12:54:53;;;;;;;1.70;1.60;;;;;;;15.40;50.55;99139.43;2110643;84;21003;-80
2022/09/23 12:57:53;;;;;;;2.12;1.95;;;;;;;15.18;51.25;99138.61;2111264;84;20920;-80
2022/09/23 13:00:54;;;;;;;2.80;1.87;;;;;;;15.04;51.47;99140.38;2110844;84;21668;-80
2022/09/23 13:07:13;;;;;;;3.33;2.08;;;;;;;15.32;52.13;99122.80;2109558;84;21323;-80
2022/09/23 13:10:13;;;;;;;2.83;2.05;;;;;;;15.38;50.91;99127.59;2110087;84;21433;-80
2022/09/23 13:13:14;;;;;;;2.50;2.30;;;;;;;15.15;52.06;99128.09;2109334;84;21002;-79
2022/09/23 13:16:14;;;;;;;2.25;2.08;;;;;;;14.94;53.34;99127.69;2109636;84;20972;-81
2022/09/23 13:19:15;;;;;;;3.40;2.50;;;;;;;14.73;54.36;99121.98;2109944;84;20987;-80
2022/09/23 13:22:15;;;;;;;4.45;3.05;;;;;;;14.63;55.28;99122.42;2102474;84;21019;-80
2022/09/23 13:25:16;;;;;;;4.05;2.42;;;;;;;14.53;55.89;99121.98;2102140;85;21014;-80
2022/09/23 13:28:16;;;;;;;3.60;3.08;;;;;;;14.54;56.09;99114.55;2102235;85;20988;-80
2022/09/23 13:31:16;;;;;;;3.77;2.92;;;;;;;14.72;56.81;99108.41;2102557;85;20960;-79
2022/09/23 13:34:17;;;;;;;3.27;2.92;;;;;;;14.84;57.00;99105.80;2102787;85;20964;-81
2022/09/23 13:37:17;;;;;;;5.25;2.37;;;;;;;14.98;56.52;99099.21;2103749;84;20955;-81
2022/09/23 13:40:18;;;;;;;3.02;2.75;;;;;;;15.07;52.20;99097.00;2103791;85;21319;-80
2022/09/23 13:43:19;;;;;;;6.75;3.30;;;;;;;15.14;51.87;99097.42;2104190;85;21455;-79
2022/09/23 13:46:18;;;;;;;2.42;2.22;;;;;;;15.30;53.03;99090.80;2105060;84;20980;-80
2022/09/23 13:49:19;;;;;;;4.10;3.62;;;;;;;15.43;51.64;99088.13;2105044;85;20956;-81
2022/09/23 13:52:22;;;;;;;4.30;3.55;;;;;;;15.17;52.16;99096.09;2104821;85;21095;-81
2022/09/23 13:55:20;;;;;;;3.33;2.37;;;;;;;15.10;53.06;99087.35;2105704;85;20979;-80
2022/09/23 13:58:21;;;;;;;5.60;2.27;;;;;;;15.07;50.91;99091.74;2106291;85;21379;-81
2022/09/23 14:01:21;;;;;;;7.80;2.83;;;;;;;15.05;51.96;99087.80;2105898;85;20925;-79
2022/09/23 14:04:22;;;;;;;15.50;2.95;;;;;;;15.06;51.16;99086.92;2106313;85;20960;-81
2022/09/23 14:07:22;;;;;;;41.25;4.53;;;;;;;15.05;51.92;99093.06;2105844;85;21005;-79
2022/09/23 14:10:22;;;;;;;3.05;2.42;;;;;;;14.87;52.60;99086.09;2105557;85;21347;-79
2022/09/23 14:13:23;;;;;;;5.37;2.15;;;;;;;14.80;52.72;99084.34;2104676;85;20932;-82